Time;durP1;ratioP1;P1;durP2;ratioP2;P2;SDS_P1;SDS_P2;PMS_P1;PMS_P2;Temp;Humidity;BMP_temperature;BMP_pressure;BME280_temperature;BME280_humidity;BME280_pressure;Samples;Min_cycle;Max_cycle;Signal;HPM_P1;HPM_P2
2022/07/10 00:01:44;;;;;;;;;;;25.40;44.30;;;;;;4994751;28;19917;-67
2022/07/10 00:04:09;;;;;;;;;;;25.40;44.30;;;;;;4993456;28;19929;-65
2022/07/10 00:06:35;;;;;;;;;;;25.40;44.30;;;;;;4993566;28;19964;-62
2022/07/10 00:09:01;;;;;;;;;;;25.40;44.40;;;;;;4996230;28;20262;-64
2022/07/10 00:11:26;;;;;;;;;;;25.30;44.40;;;;;;4993808;28;19909;-64
2022/07/10 00:13:52;;;;;;;;;;;25.30;44.40;;;;;;4996212;28;19909;-65
2022/07/10 00:16:17;;;;;;;;;;;25.30;44.40;;;;;;4992480;28;19909;-66
2022/07/10 00:18:43;;;;;;;;;;;25.30;44.40;;;;;;4993406;28;20001;-65
2022/07/10 00:21:08;;;;;;;;;;;25.30;44.40;;;;;;4992692;28;20523;-66
2022/07/10 00:23:34;;;;;;;;;;;25.30;44.40;;;;;;4995073;28;20024;-64
2022/07/10 00:25:59;;;;;;;;;;;25.20;44.40;;;;;;4993077;28;19916;-67
2022/07/10 00:28:24;;;;;;;;;;;25.30;44.50;;;;;;4994084;28;19909;-64
2022/07/10 00:30:50;;;;;;;;;;;25.20;44.50;;;;;;4995956;28;20384;-64
2022/07/10 00:33:15;;;;;;;;;;;25.20;44.50;;;;;;4995183;28;19919;-64
2022/07/10 00:35:41;;;;;;;;;;;25.20;44.50;;;;;;4991146;28;19913;-65
2022/07/10 00:38:06;;;;;;;;;;;25.20;44.50;;;;;;4992474;28;19917;-65
2022/07/10 00:40:32;;;;;;;;;;;25.20;44.50;;;;;;4994645;28;20302;-64
2022/07/10 00:42:57;;;;;;;;;;;25.20;44.50;;;;;;4993779;28;20031;-64
2022/07/10 00:45:23;;;;;;;;;;;25.20;44.50;;;;;;4993274;28;20046;-63
2022/07/10 00:47:48;;;;;;;;;;;25.20;44.60;;;;;;4993558;28;19913;-66
2022/07/10 00:50:14;;;;;;;;;;;25.20;44.70;;;;;;4992364;28;19932;-65
2022/07/10 00:52:40;;;;;;;;;;;25.20;44.60;;;;;;4993670;28;19909;-65
2022/07/10 00:55:06;;;;;;;;;;;25.20;44.60;;;;;;4995393;28;20010;-63
2022/07/10 00:57:32;;;;;;;;;;;25.20;44.60;;;;;;4992107;28;19937;-65
2022/07/10 00:59:58;;;;;;;;;;;25.10;44.60;;;;;;4993523;28;20012;-63
2022/07/10 01:02:23;;;;;;;;;;;25.20;44.70;;;;;;4994277;28;19995;-65
2022/07/10 01:04:49;;;;;;;;;;;25.10;44.70;;;;;;4993247;28;19913;-65
2022/07/10 01:07:15;;;;;;;;;;;25.10;44.70;;;;;;4990664;28;20349;-65
2022/07/10 01:09:46;;;;;;;;;;;25.10;44.70;;;;;;4994890;28;19914;-64
2022/07/10 01:12:12;;;;;;;;;;;25.10;44.80;;;;;;4992385;28;20038;-64
2022/07/10 01:14:39;;;;;;;;;;;25.10;44.80;;;;;;4993766;28;20047;-65
2022/07/10 01:17:06;;;;;;;;;;;25.10;44.80;;;;;;4994929;28;19913;-65
2022/07/10 01:19:31;;;;;;;;;;;25.10;44.80;;;;;;4994078;28;20337;-66
2022/07/10 01:21:57;;;;;;;;;;;25.10;44.80;;;;;;4992878;28;19916;-68
2022/07/10 01:24:22;;;;;;;;;;;25.00;44.80;;;;;;4992907;28;19913;-65
2022/07/10 01:26:48;;;;;;;;;;;25.00;44.90;;;;;;4994038;28;20054;-66
2022/07/10 01:29:13;;;;;;;;;;;25.00;44.90;;;;;;4991860;28;19956;-66
2022/07/10 01:31:39;;;;;;;;;;;25.00;44.90;;;;;;4992455;28;19925;-63
2022/07/10 01:34:06;;;;;;;;;;;25.00;44.90;;;;;;4993604;28;19913;-67
2022/07/10 01:36:31;;;;;;;;;;;25.00;44.90;;;;;;4990945;28;20025;-64
2022/07/10 01:38:57;;;;;;;;;;;25.00;45.00;;;;;;4991353;28;20057;-62
2022/07/10 01:41:23;;;;;;;;;;;25.00;45.00;;;;;;4993605;28;20341;-66
2022/07/10 01:43:49;;;;;;;;;;;25.00;45.00;;;;;;4994333;28;20365;-65
2022/07/10 01:46:16;;;;;;;;;;;24.90;45.00;;;;;;4995142;28;19914;-66
2022/07/10 01:48:41;;;;;;;;;;;24.90;45.00;;;;;;4995755;28;19920;-64
2022/07/10 01:51:08;;;;;;;;;;;24.90;45.00;;;;;;4994666;28;20281;-64
2022/07/10 01:53:34;;;;;;;;;;;24.90;45.10;;;;;;4996409;28;19925;-63
2022/07/10 01:56:07;;;;;;;;;;;24.90;45.10;;;;;;4996704;28;19909;-64
2022/07/10 01:58:32;;;;;;;;;;;24.90;45.10;;;;;;4994617;28;20095;-64
2022/07/10 02:00:58;;;;;;;;;;;24.90;45.10;;;;;;4998877;28;20095;-64
2022/07/10 02:06:08;;;;;;;;;;;24.90;45.20;;;;;;4996834;28;20297;-64
2022/07/10 02:08:33;;;;;;;;;;;24.90;45.20;;;;;;4993213;28;19945;-61
2022/07/10 02:10:59;;;;;;;;;;;24.80;45.20;;;;;;4998328;28;19916;-65
2022/07/10 02:13:27;;;;;;;;;;;24.80;45.20;;;;;;4995280;28;20254;-63
2022/07/10 02:15:53;;;;;;;;;;;24.90;45.30;;;;;;4996552;28;19983;-64
2022/07/10 02:18:19;;;;;;;;;;;24.80;45.30;;;;;;4995307;28;19937;-64
2022/07/10 02:20:44;;;;;;;;;;;24.80;45.30;;;;;;4997062;28;20333;-65
2022/07/10 02:23:10;;;;;;;;;;;24.80;45.30;;;;;;4996151;28;19913;-63
2022/07/10 02:25:35;;;;;;;;;;;24.80;45.30;;;;;;4994888;28;19972;-62
2022/07/10 02:28:01;;;;;;;;;;;24.80;45.30;;;;;;4995744;28;20007;-64
2022/07/10 02:30:26;;;;;;;;;;;24.80;45.30;;;;;;4996291;28;19980;-62
2022/07/10 02:32:52;;;;;;;;;;;24.80;45.40;;;;;;4997034;28;19910;-63
2022/07/10 02:35:18;;;;;;;;;;;24.80;45.40;;;;;;4996345;28;19933;-63
2022/07/10 02:37:43;;;;;;;;;;;24.80;45.40;;;;;;4992610;28;19918;-65
2022/07/10 02:40:09;;;;;;;;;;;24.80;45.40;;;;;;4997266;28;19913;-64
2022/07/10 02:42:35;;;;;;;;;;;24.80;45.40;;;;;;4996561;28;19910;-64
2022/07/10 02:45:00;;;;;;;;;;;24.80;45.40;;;;;;4994095;28;19920;-65
2022/07/10 02:47:25;;;;;;;;;;;24.80;45.40;;;;;;4994990;28;19921;-62
2022/07/10 02:49:51;;;;;;;;;;;24.80;45.50;;;;;;4996382;28;19909;-64
2022/07/10 02:52:16;;;;;;;;;;;24.70;45.40;;;;;;4994378;28;19909;-64
2022/07/10 02:54:42;;;;;;;;;;;24.80;45.50;;;;;;4997399;28;19921;-62
2022/07/10 02:57:08;;;;;;;;;;;24.70;45.50;;;;;;4996448;28;19909;-64
2022/07/10 02:59:33;;;;;;;;;;;24.70;45.50;;;;;;5009925;28;19924;-61
2022/07/10 03:01:59;;;;;;;;;;;24.70;45.50;;;;;;4995066;28;19967;-64
2022/07/10 03:04:24;;;;;;;;;;;24.80;45.50;;;;;;4995168;28;19932;-65
2022/07/10 03:06:50;;;;;;;;;;;24.70;45.50;;;;;;4994650;28;19920;-62
2022/07/10 03:09:15;;;;;;;;;;;24.70;45.50;;;;;;4993952;28;19936;-62
2022/07/10 03:11:41;;;;;;;;;;;24.70;45.50;;;;;;4995223;28;20277;-65
2022/07/10 03:14:06;;;;;;;;;;;24.70;45.50;;;;;;4995608;28;20406;-65
2022/07/10 03:16:32;;;;;;;;;;;24.70;45.50;;;;;;4994832;28;19947;-64
2022/07/10 03:18:57;;;;;;;;;;;24.70;45.50;;;;;;4995041;28;19924;-64
2022/07/10 03:21:23;;;;;;;;;;;24.70;45.50;;;;;;4994408;28;19921;-65
2022/07/10 03:23:48;;;;;;;;;;;24.70;45.50;;;;;;4995841;28;19914;-65
2022/07/10 03:26:14;;;;;;;;;;;24.70;45.50;;;;;;4996357;28;19917;-64
2022/07/10 03:28:39;;;;;;;;;;;24.70;45.60;;;;;;4995341;28;20436;-64
2022/07/10 03:31:05;;;;;;;;;;;24.70;45.60;;;;;;4994240;28;19913;-63
2022/07/10 03:33:30;;;;;;;;;;;24.70;45.60;;;;;;4994936;28;20039;-64
2022/07/10 03:35:56;;;;;;;;;;;24.70;45.60;;;;;;4994760;28;19913;-64
2022/07/10 03:38:21;;;;;;;;;;;24.70;45.60;;;;;;4992515;28;20365;-65
2022/07/10 03:40:48;;;;;;;;;;;24.60;45.50;;;;;;4994945;28;19960;-64
2022/07/10 03:43:14;;;;;;;;;;;24.60;45.50;;;;;;4995066;28;20286;-64
2022/07/10 03:45:39;;;;;;;;;;;24.60;45.50;;;;;;4993379;28;20013;-65
2022/07/10 03:48:05;;;;;;;;;;;24.60;45.50;;;;;;4993302;28;22105;-64
2022/07/10 03:50:30;;;;;;;;;;;24.70;45.60;;;;;;4993680;28;19913;-65
2022/07/10 03:52:56;;;;;;;;;;;24.60;45.60;;;;;;4992986;28;19909;-65
2022/07/10 03:55:21;;;;;;;;;;;24.60;45.60;;;;;;4998117;28;19968;-64
2022/07/10 03:57:53;;;;;;;;;;;24.60;45.60;;;;;;4994610;28;19910;-61
2022/07/10 04:00:28;;;;;;;;;;;24.60;45.60;;;;;;4990397;28;20354;-65
2022/07/10 04:02:57;;;;;;;;;;;24.60;45.60;;;;;;4995247;28;19920;-63
2022/07/10 04:05:23;;;;;;;;;;;24.60;45.60;;;;;;4996176;28;19914;-62
2022/07/10 04:07:49;;;;;;;;;;;24.60;45.60;;;;;;4991939;28;19920;-65
2022/07/10 04:10:15;;;;;;;;;;;24.60;45.70;;;;;;4994439;28;19935;-65
2022/07/10 04:12:41;;;;;;;;;;;24.60;45.70;;;;;;4996402;28;19928;-64
2022/07/10 04:15:07;;;;;;;;;;;24.60;45.70;;;;;;4991974;28;19909;-64
2022/07/10 04:17:32;;;;;;;;;;;24.60;45.70;;;;;;4994761;28;19972;-64
2022/07/10 04:19:59;;;;;;;;;;;24.60;45.70;;;;;;4994139;28;19918;-66
2022/07/10 04:22:24;;;;;;;;;;;24.60;45.70;;;;;;4992447;28;19936;-65
2022/07/10 04:24:50;;;;;;;;;;;24.60;45.70;;;;;;4993229;28;19913;-64
2022/07/10 04:27:16;;;;;;;;;;;24.60;45.70;;;;;;4992464;28;20028;-65
2022/07/10 04:29:42;;;;;;;;;;;24.50;45.70;;;;;;4994027;28;19913;-63
2022/07/10 04:32:08;;;;;;;;;;;24.50;45.70;;;;;;4995077;28;19924;-65
2022/07/10 04:34:34;;;;;;;;;;;24.50;45.70;;;;;;4993828;28;19917;-64
2022/07/10 04:36:59;;;;;;;;;;;24.50;45.70;;;;;;4993282;28;19920;-64
2022/07/10 04:39:25;;;;;;;;;;;24.50;45.70;;;;;;4993770;28;19917;-65
2022/07/10 04:41:51;;;;;;;;;;;24.50;45.70;;;;;;4994074;28;19913;-66
2022/07/10 04:44:16;;;;;;;;;;;24.50;46.30;;;;;;4993758;28;19909;-64
2022/07/10 04:46:42;;;;;;;;;;;24.50;45.70;;;;;;4992851;28;20012;-64
2022/07/10 04:49:07;;;;;;;;;;;24.50;45.70;;;;;;4993187;28;20242;-63
2022/07/10 04:51:33;;;;;;;;;;;24.50;45.70;;;;;;4989290;28;20445;-62
2022/07/10 04:53:58;;;;;;;;;;;24.50;45.70;;;;;;4988482;28;19909;-65
2022/07/10 04:56:23;;;;;;;;;;;24.50;45.70;;;;;;4985942;28;19917;-65
2022/07/10 04:58:49;;;;;;;;;;;24.50;45.80;;;;;;4994649;28;20392;-64
2022/07/10 05:01:14;;;;;;;;;;;24.50;45.80;;;;;;4989702;28;20003;-66
2022/07/10 05:03:40;;;;;;;;;;;24.50;45.80;;;;;;4994076;28;20250;-64
2022/07/10 05:06:06;;;;;;;;;;;24.50;45.80;;;;;;4990649;28;19913;-64
2022/07/10 05:08:31;;;;;;;;;;;24.50;45.80;;;;;;4990064;28;19989;-63
2022/07/10 05:10:57;;;;;;;;;;;24.50;45.80;;;;;;4994244;28;20071;-64
2022/07/10 05:13:22;;;;;;;;;;;24.50;45.80;;;;;;4991330;28;20012;-62
2022/07/10 05:15:48;;;;;;;;;;;24.40;45.70;;;;;;4990672;28;19917;-64
2022/07/10 05:18:13;;;;;;;;;;;24.50;45.80;;;;;;4987815;28;19913;-64
2022/07/10 05:20:42;;;;;;;;;;;24.50;45.80;;;;;;4992154;28;19921;-66
2022/07/10 05:23:08;;;;;;;;;;;24.50;45.80;;;;;;4978959;28;20629;-64
2022/07/10 05:25:33;;;;;;;;;;;24.50;45.80;;;;;;4981772;28;19913;-66
2022/07/10 05:27:58;;;;;;;;;;;24.40;45.80;;;;;;4980992;28;20851;-65
2022/07/10 05:30:24;;;;;;;;;;;24.40;45.80;;;;;;4976952;28;19918;-65
2022/07/10 05:32:49;;;;;;;;;;;24.50;45.90;;;;;;4980522;28;20701;-65
2022/07/10 05:35:15;;;;;;;;;;;24.50;45.80;;;;;;4975884;28;19920;-64
2022/07/10 05:37:41;;;;;;;;;;;24.30;46.20;;;;;;4977494;28;19960;-65
2022/07/10 05:40:07;;;;;;;;;;;24.20;46.30;;;;;;4976705;28;19913;-64
2022/07/10 05:42:33;;;;;;;;;;;24.10;46.40;;;;;;4979696;28;19913;-62
2022/07/10 05:44:59;;;;;;;;;;;24.10;46.50;;;;;;4977285;28;19913;-62
2022/07/10 05:47:24;;;;;;;;;;;24.10;46.30;;;;;;4979398;28;19979;-64
2022/07/10 05:49:49;;;;;;;;;;;23.90;46.40;;;;;;4978102;28;19924;-64
2022/07/10 05:52:15;;;;;;;;;;;23.80;46.40;;;;;;4978547;28;20769;-64
2022/07/10 05:54:40;;;;;;;;;;;23.70;46.50;;;;;;4992327;28;20214;-63
2022/07/10 05:57:06;;;;;;;;;;;23.70;46.60;;;;;;4979442;28;19971;-65
2022/07/10 05:59:34;;;;;;;;;;;23.60;46.70;;;;;;4977491;28;19936;-65
2022/07/10 06:02:00;;;;;;;;;;;23.60;47.10;;;;;;4980026;28;20604;-64
2022/07/10 06:04:26;;;;;;;;;;;23.50;46.60;;;;;;4979023;28;19919;-63
2022/07/10 06:06:52;;;;;;;;;;;23.40;46.80;;;;;;4978054;28;20610;-63
2022/07/10 06:09:17;;;;;;;;;;;23.40;47.10;;;;;;4975806;28;19936;-65
2022/07/10 06:11:45;;;;;;;;;;;23.30;47.10;;;;;;4977603;28;19914;-64
2022/07/10 06:14:11;;;;;;;;;;;23.30;47.00;;;;;;4980190;28;19917;-63
2022/07/10 06:16:36;;;;;;;;;;;23.20;47.10;;;;;;4975426;28;19928;-63
2022/07/10 06:19:02;;;;;;;;;;;23.10;47.30;;;;;;4977780;28;20486;-64
2022/07/10 06:21:27;;;;;;;;;;;23.10;47.30;;;;;;4977144;28;20661;-62
2022/07/10 06:23:53;;;;;;;;;;;23.10;47.20;;;;;;4977637;28;19984;-64
2022/07/10 06:26:18;;;;;;;;;;;23.00;47.30;;;;;;4979536;28;20232;-63
2022/07/10 06:28:44;;;;;;;;;;;23.00;47.30;;;;;;4978071;28;19936;-64
2022/07/10 06:31:09;;;;;;;;;;;23.00;47.30;;;;;;4977138;28;19987;-64
2022/07/10 06:33:38;;;;;;;;;;;23.00;47.20;;;;;;4979724;28;19929;-63
2022/07/10 06:36:03;;;;;;;;;;;23.10;47.20;;;;;;4979861;28;19917;-64
2022/07/10 06:38:29;;;;;;;;;;;23.10;47.10;;;;;;4979670;28;20004;-63
2022/07/10 06:40:54;;;;;;;;;;;23.10;47.10;;;;;;4983198;28;20474;-64
2022/07/10 06:43:20;;;;;;;;;;;23.10;47.10;;;;;;4982404;28;19917;-63
2022/07/10 06:45:45;;;;;;;;;;;23.10;47.00;;;;;;4984156;28;20849;-64
2022/07/10 06:48:11;;;;;;;;;;;23.20;47.10;;;;;;4982802;28;20617;-64
2022/07/10 06:50:37;;;;;;;;;;;23.20;47.10;;;;;;4978391;28;19913;-63
2022/07/10 06:53:02;;;;;;;;;;;23.20;47.20;;;;;;4981787;28;19917;-64
2022/07/10 06:55:28;;;;;;;;;;;23.20;47.20;;;;;;4984821;28;19913;-61
2022/07/10 06:57:54;;;;;;;;;;;23.20;47.20;;;;;;4982251;28;20138;-64
2022/07/10 07:00:20;;;;;;;;;;;23.20;47.20;;;;;;4980509;28;21490;-64
2022/07/10 07:02:46;;;;;;;;;;;23.30;47.30;;;;;;4984053;28;19909;-63
2022/07/10 07:05:12;;;;;;;;;;;23.20;47.20;;;;;;4983238;28;20530;-64
2022/07/10 07:07:37;;;;;;;;;;;23.20;47.20;;;;;;4979742;28;19913;-63
2022/07/10 07:10:04;;;;;;;;;;;23.30;47.30;;;;;;4983648;28;19917;-64
2022/07/10 07:12:29;;;;;;;;;;;23.30;47.30;;;;;;4980301;28;19909;-64
2022/07/10 07:14:55;;;;;;;;;;;23.30;47.30;;;;;;4984372;28;19913;-63
2022/07/10 07:17:33;;;;;;;;;;;23.30;47.30;;;;;;4981682;28;19909;-63
2022/07/10 07:25:27;;;;;;;;;;;23.30;47.20;;;;;;4982768;28;19923;-63
2022/07/10 07:27:53;;;;;;;;;;;23.30;47.10;;;;;;4979809;28;19913;-64
2022/07/10 07:30:18;;;;;;;;;;;23.30;47.10;;;;;;4980927;28;19959;-63
2022/07/10 07:32:45;;;;;;;;;;;23.30;47.10;;;;;;4983145;28;20755;-62
2022/07/10 07:35:11;;;;;;;;;;;23.30;47.10;;;;;;4982914;28;19921;-66
2022/07/10 07:37:37;;;;;;;;;;;23.30;47.10;;;;;;4982158;28;19913;-64
2022/07/10 07:40:04;;;;;;;;;;;23.30;47.10;;;;;;4980812;28;20514;-62
2022/07/10 07:42:29;;;;;;;;;;;23.30;47.10;;;;;;4981473;28;19936;-64
2022/07/10 07:44:54;;;;;;;;;;;23.30;47.10;;;;;;4982586;28;19918;-63
2022/07/10 07:47:20;;;;;;;;;;;23.30;47.10;;;;;;4982633;28;19914;-63
2022/07/10 07:49:45;;;;;;;;;;;23.30;47.10;;;;;;4978764;28;20757;-64
2022/07/10 07:52:11;;;;;;;;;;;23.40;47.10;;;;;;4976532;28;19924;-63
2022/07/10 07:54:36;;;;;;;;;;;23.40;47.10;;;;;;4981994;28;20536;-63
2022/07/10 07:57:02;;;;;;;;;;;23.40;47.10;;;;;;4979359;28;19913;-63
2022/07/10 07:59:27;;;;;;;;;;;23.40;47.10;;;;;;4975448;28;19917;-63
2022/07/10 08:01:53;;;;;;;;;;;23.40;47.10;;;;;;4976084;28;19971;-64
2022/07/10 08:04:18;;;;;;;;;;;23.40;47.10;;;;;;4975262;28;19927;-64
2022/07/10 08:06:44;;;;;;;;;;;23.40;47.10;;;;;;4977282;28;19947;-63
2022/07/10 08:09:09;;;;;;;;;;;23.40;47.10;;;;;;4978491;28;19910;-64
2022/07/10 08:11:35;;;;;;;;;;;23.40;47.10;;;;;;4978861;28;19913;-64
2022/07/10 08:14:00;;;;;;;;;;;23.40;47.00;;;;;;4977975;28;19920;-63
2022/07/10 08:16:26;;;;;;;;;;;23.40;47.00;;;;;;4975054;28;19920;-64
2022/07/10 08:18:51;;;;;;;;;;;23.40;47.00;;;;;;4979075;28;19918;-62
2022/07/10 08:21:17;;;;;;;;;;;23.40;46.90;;;;;;4977323;28;19918;-64
2022/07/10 08:23:42;;;;;;;;;;;23.40;46.90;;;;;;4984019;28;20652;-64
2022/07/10 08:26:08;;;;;;;;;;;23.40;46.90;;;;;;4973318;28;19940;-63
2022/07/10 08:28:33;;;;;;;;;;;23.40;46.90;;;;;;4977918;28;19913;-62
2022/07/10 08:30:59;;;;;;;;;;;23.40;46.90;;;;;;4978416;28;20031;-64
2022/07/10 08:33:24;;;;;;;;;;;23.40;46.80;;;;;;4980016;28;20478;-64
2022/07/10 08:35:50;;;;;;;;;;;23.40;46.80;;;;;;4981507;28;19928;-64
2022/07/10 08:38:15;;;;;;;;;;;23.40;46.80;;;;;;4979272;28;20344;-62
2022/07/10 08:40:42;;;;;;;;;;;23.40;46.80;;;;;;4979785;28;19913;-64
2022/07/10 08:43:08;;;;;;;;;;;23.50;46.80;;;;;;4979137;28;19914;-64
2022/07/10 08:45:34;;;;;;;;;;;23.50;46.80;;;;;;4981221;28;19957;-64
2022/07/10 08:48:02;;;;;;;;;;;23.50;46.70;;;;;;4980095;28;19916;-63
2022/07/10 08:50:28;;;;;;;;;;;23.50;46.70;;;;;;4979134;28;20027;-63
2022/07/10 08:53:00;;;;;;;;;;;23.50;46.60;;;;;;4981323;28;20007;-63
2022/07/10 08:55:26;;;;;;;;;;;23.40;46.60;;;;;;4980864;28;19920;-63
2022/07/10 08:57:52;;;;;;;;;;;23.50;46.70;;;;;;4977087;28;19909;-61
2022/07/10 09:00:18;;;;;;;;;;;23.50;46.60;;;;;;4978807;28;19920;-64
2022/07/10 09:02:43;;;;;;;;;;;23.50;46.60;;;;;;4979485;28;20019;-64
2022/07/10 09:05:09;;;;;;;;;;;23.50;46.50;;;;;;4978573;28;19913;-64
2022/07/10 09:07:35;;;;;;;;;;;23.50;46.50;;;;;;4978368;28;19948;-63
2022/07/10 09:10:05;;;;;;;;;;;23.50;46.50;;;;;;4978607;28;20529;-63
2022/07/10 09:12:47;;;;;;;;;;;23.50;46.50;;;;;;4978421;28;19964;-64
2022/07/10 09:15:21;;;;;;;;;;;23.50;46.50;;;;;;4976638;28;19917;-65
2022/07/10 09:17:57;;;;;;;;;;;23.50;46.50;;;;;;4979857;28;19913;-64
2022/07/10 09:20:26;;;;;;;;;;;23.50;46.50;;;;;;4977538;28;20011;-64
2022/07/10 09:22:52;;;;;;;;;;;23.50;46.40;;;;;;4978005;28;19983;-64
2022/07/10 09:25:18;;;;;;;;;;;23.50;46.50;;;;;;4979544;28;20634;-64
2022/07/10 09:27:56;;;;;;;;;;;23.50;46.50;;;;;;4976492;28;20018;-64
2022/07/10 09:30:32;;;;;;;;;;;23.60;46.50;;;;;;4977887;28;20027;-64
2022/07/10 09:33:17;;;;;;;;;;;23.60;46.50;;;;;;4978590;28;19920;-63
2022/07/10 09:36:04;;;;;;;;;;;23.60;46.40;;;;;;4979955;28;19923;-63
2022/07/10 09:38:39;;;;;;;;;;;23.60;46.90;;;;;;4978612;28;20814;-61
2022/07/10 09:41:14;;;;;;;;;;;23.60;46.40;;;;;;4979984;28;19920;-62
2022/07/10 09:43:46;;;;;;;;;;;23.60;46.40;;;;;;4981062;28;19914;-64
2022/07/10 09:46:12;;;;;;;;;;;23.60;46.40;;;;;;4980248;28;20016;-64
2022/07/10 09:48:37;;;;;;;;;;;23.60;46.40;;;;;;4979136;28;20622;-64
2022/07/10 09:51:08;;;;;;;;;;;23.60;46.40;;;;;;4979243;28;19944;-64
2022/07/10 09:53:37;;;;;;;;;;;23.60;46.40;;;;;;4978867;28;19914;-63
2022/07/10 09:56:05;;;;;;;;;;;23.60;46.30;;;;;;4980067;28;19967;-63
2022/07/10 09:58:32;;;;;;;;;;;23.60;46.40;;;;;;4977366;28;19923;-64
2022/07/10 10:00:58;;;;;;;;;;;23.60;46.30;;;;;;4979522;28;20416;-64
2022/07/10 10:03:24;;;;;;;;;;;23.60;46.30;;;;;;4977461;28;19917;-63
2022/07/10 10:05:53;;;;;;;;;;;23.60;46.30;;;;;;4981062;28;19960;-64
2022/07/10 10:08:28;;;;;;;;;;;23.60;46.30;;;;;;4980276;28;20677;-64
2022/07/10 10:10:56;;;;;;;;;;;23.60;46.30;;;;;;4976401;28;20708;-63
2022/07/10 10:13:22;;;;;;;;;;;23.60;46.40;;;;;;4979773;28;20086;-63
2022/07/10 10:15:48;;;;;;;;;;;23.70;46.40;;;;;;4977577;28;20044;-62
2022/07/10 10:18:34;;;;;;;;;;;23.70;46.40;;;;;;4978070;28;20444;-63
2022/07/10 10:21:00;;;;;;;;;;;23.70;46.30;;;;;;4979022;28;20889;-63
2022/07/10 10:23:27;;;;;;;;;;;23.70;46.70;;;;;;4978057;28;19987;-63
2022/07/10 10:25:54;;;;;;;;;;;23.80;46.10;;;;;;4988097;28;19918;-64
2022/07/10 10:28:23;;;;;;;;;;;23.80;46.10;;;;;;4985772;28;19929;-63
2022/07/10 10:30:50;;;;;;;;;;;23.80;46.10;;;;;;4982502;28;19917;-63
2022/07/10 10:33:42;;;;;;;;;;;23.80;46.10;;;;;;4983037;28;19913;-63
2022/07/10 10:36:07;;;;;;;;;;;23.90;46.00;;;;;;4983087;28;19918;-62
2022/07/10 10:38:48;;;;;;;;;;;23.80;46.00;;;;;;4980930;28;19991;-64
2022/07/10 10:41:22;;;;;;;;;;;23.90;46.00;;;;;;4981824;28;20036;-63
2022/07/10 10:44:06;;;;;;;;;;;23.90;46.00;;;;;;4978251;28;19940;-63
2022/07/10 10:46:32;;;;;;;;;;;23.90;46.00;;;;;;4979752;28;19912;-64
2022/07/10 10:49:04;;;;;;;;;;;23.90;46.00;;;;;;4982898;28;20351;-64
2022/07/10 10:51:48;;;;;;;;;;;23.90;46.00;;;;;;4976662;28;19913;-63
2022/07/10 10:54:14;;;;;;;;;;;23.90;46.10;;;;;;4979962;28;20772;-62
2022/07/10 10:56:39;;;;;;;;;;;23.90;46.10;;;;;;4979269;28;19925;-63
2022/07/10 10:59:05;;;;;;;;;;;23.90;46.10;;;;;;4982916;28;19980;-64
2022/07/10 11:01:32;;;;;;;;;;;23.90;46.10;;;;;;4980468;28;20501;-63
2022/07/10 11:04:10;;;;;;;;;;;24.00;46.10;;;;;;4978143;28;20425;-65
2022/07/10 11:06:52;;;;;;;;;;;23.90;46.10;;;;;;4980423;28;20433;-64
2022/07/10 11:09:20;;;;;;;;;;;23.90;46.10;;;;;;4979692;28;19928;-63
2022/07/10 11:11:57;;;;;;;;;;;24.00;46.10;;;;;;4980293;28;19992;-62
2022/07/10 11:14:27;;;;;;;;;;;23.90;46.00;;;;;;4986798;28;19914;-64
2022/07/10 11:16:53;;;;;;;;;;;23.90;46.00;;;;;;4981139;28;20036;-63
2022/07/10 11:19:19;;;;;;;;;;;23.90;46.00;;;;;;4975872;28;19921;-63
2022/07/10 11:21:47;;;;;;;;;;;23.90;46.00;;;;;;4978502;28;19917;-63
2022/07/10 11:24:31;;;;;;;;;;;23.90;46.00;;;;;;4981611;28;20850;-63
2022/07/10 11:27:04;;;;;;;;;;;23.90;46.10;;;;;;4981377;28;19913;-64
2022/07/10 11:29:35;;;;;;;;;;;23.90;45.90;;;;;;4982321;28;19913;-62
2022/07/10 11:32:02;;;;;;;;;;;23.90;46.00;;;;;;4981464;28;19917;-63
2022/07/10 11:34:36;;;;;;;;;;;23.90;46.00;;;;;;4980157;28;19919;-64
2022/07/10 11:37:03;;;;;;;;;;;23.90;45.90;;;;;;4977515;28;19913;-63
2022/07/10 11:39:28;;;;;;;;;;;23.90;45.90;;;;;;4979598;28;19929;-64
2022/07/10 11:41:54;;;;;;;;;;;23.90;45.90;;;;;;4979250;28;19925;-62
2022/07/10 11:44:20;;;;;;;;;;;23.90;45.90;;;;;;4981919;28;19964;-64
2022/07/10 11:46:49;;;;;;;;;;;23.90;45.90;;;;;;4979315;28;19927;-63
2022/07/10 11:49:15;;;;;;;;;;;24.00;46.00;;;;;;4977693;28;19956;-63
2022/07/10 11:51:40;;;;;;;;;;;23.90;45.90;;;;;;4976725;28;19913;-63
2022/07/10 11:54:15;;;;;;;;;;;23.90;45.90;;;;;;4979159;28;20010;-64
2022/07/10 11:56:42;;;;;;;;;;;23.90;45.90;;;;;;4972080;28;19914;-63
2022/07/10 11:59:09;;;;;;;;;;;23.90;45.80;;;;;;4977435;28;19918;-64
2022/07/10 12:01:35;;;;;;;;;;;24.00;45.90;;;;;;4972529;28;19956;-65
2022/07/10 12:04:02;;;;;;;;;;;23.90;45.80;;;;;;4978249;28;20032;-63
2022/07/10 12:06:28;;;;;;;;;;;23.90;45.80;;;;;;4978713;28;20559;-64
2022/07/10 12:08:54;;;;;;;;;;;23.90;45.80;;;;;;4978258;28;20459;-63
2022/07/10 12:11:20;;;;;;;;;;;23.90;45.80;;;;;;4978517;28;19920;-64
2022/07/10 12:13:47;;;;;;;;;;;23.90;45.80;;;;;;4980205;28;19952;-64
2022/07/10 12:16:13;;;;;;;;;;;24.00;45.90;;;;;;4979635;28;20005;-63
2022/07/10 12:18:41;;;;;;;;;;;23.90;45.80;;;;;;4981952;28;19946;-64
2022/07/10 12:21:07;;;;;;;;;;;24.00;45.90;;;;;;4973401;28;19918;-63
2022/07/10 12:23:34;;;;;;;;;;;23.90;45.80;;;;;;4976974;28;20537;-63
2022/07/10 12:26:01;;;;;;;;;;;24.00;45.90;;;;;;4978246;28;20036;-64
2022/07/10 12:28:27;;;;;;;;;;;24.00;46.00;;;;;;4980498;28;19913;-64
2022/07/10 12:30:53;;;;;;;;;;;24.00;46.00;;;;;;4979240;28;19920;-65
2022/07/10 12:33:19;;;;;;;;;;;24.00;46.00;;;;;;4978350;28;20850;-63
2022/07/10 12:35:58;;;;;;;;;;;24.00;45.90;;;;;;4980073;28;20775;-63
2022/07/10 12:38:23;;;;;;;;;;;23.90;45.50;;;;;;4978274;28;19964;-63
2022/07/10 12:40:49;;;;;;;;;;;23.90;44.80;;;;;;4977599;28;19922;-64
2022/07/10 12:43:27;;;;;;;;;;;23.90;44.50;;;;;;4979813;28;20123;-63
2022/07/10 12:46:12;;;;;;;;;;;23.90;44.30;;;;;;4976776;28;20549;-62
2022/07/10 12:48:38;;;;;;;;;;;23.90;44.00;;;;;;4976111;28;20012;-63
2022/07/10 12:51:39;;;;;;;;;;;23.90;43.90;;;;;;4978269;28;20059;-64
2022/07/10 12:54:04;;;;;;;;;;;23.90;43.90;;;;;;4954602;28;19917;-63
2022/07/10 12:56:36;;;;;;;;;;;23.90;43.60;;;;;;4974374;28;19922;-63
2022/07/10 12:59:04;;;;;;;;;;;23.90;43.30;;;;;;4980071;28;19924;-63
2022/07/10 13:01:40;;;;;;;;;;;23.90;43.20;;;;;;4977342;28;19983;-63
2022/07/10 13:04:05;;;;;;;;;;;23.90;43.00;;;;;;4976838;28;20445;-65
2022/07/10 13:06:32;;;;;;;;;;;24.00;43.10;;;;;;4975827;28;20044;-63
2022/07/10 13:08:57;;;;;;;;;;;23.90;43.00;;;;;;4977723;28;20695;-64
2022/07/10 13:11:23;;;;;;;;;;;23.90;42.90;;;;;;4975319;28;19917;-63
2022/07/10 13:13:49;;;;;;;;;;;23.90;43.20;;;;;;4977110;28;19920;-63
2022/07/10 13:16:15;;;;;;;;;;;24.00;43.30;;;;;;4979842;28;20669;-65
2022/07/10 13:18:44;;;;;;;;;;;23.90;43.20;;;;;;4974086;28;19984;-64
2022/07/10 13:21:10;;;;;;;;;;;23.90;42.60;;;;;;4971712;28;19918;-64
2022/07/10 13:23:36;;;;;;;;;;;23.90;42.50;;;;;;4975191;28;20009;-63
2022/07/10 13:26:03;;;;;;;;;;;23.90;42.20;;;;;;4977328;28;20013;-65
2022/07/10 13:28:29;;;;;;;;;;;23.90;42.10;;;;;;4977115;28;20409;-62
2022/07/10 13:30:54;;;;;;;;;;;23.90;42.20;;;;;;4975303;28;19933;-64
2022/07/10 13:33:20;;;;;;;;;;;23.90;42.00;;;;;;4972639;28;19909;-64
2022/07/10 13:35:46;;;;;;;;;;;23.90;42.00;;;;;;4978020;28;19921;-64
2022/07/10 13:38:11;;;;;;;;;;;23.90;42.20;;;;;;4973346;28;20551;-63
2022/07/10 13:40:40;;;;;;;;;;;23.90;42.20;;;;;;4978653;28;20391;-65
2022/07/10 13:43:06;;;;;;;;;;;23.90;42.20;;;;;;4978650;28;20419;-64
2022/07/10 13:45:37;;;;;;;;;;;23.90;42.40;;;;;;4983732;28;19959;-64
2022/07/10 13:48:03;;;;;;;;;;;23.90;42.20;;;;;;4982097;28;19913;-63
2022/07/10 13:50:28;;;;;;;;;;;23.90;42.30;;;;;;4985285;28;20004;-64
2022/07/10 13:52:54;;;;;;;;;;;23.90;42.00;;;;;;4982819;28;20694;-63
2022/07/10 13:55:19;;;;;;;;;;;23.90;42.30;;;;;;4985249;28;19925;-64
2022/07/10 13:57:45;;;;;;;;;;;23.90;42.60;;;;;;4982326;28;19917;-64
2022/07/10 14:00:11;;;;;;;;;;;23.90;42.60;;;;;;4983445;28;19924;-63
2022/07/10 14:02:37;;;;;;;;;;;23.90;42.40;;;;;;4983547;28;19937;-64
2022/07/10 14:05:02;;;;;;;;;;;23.90;42.10;;;;;;4982001;28;19913;-63
2022/07/10 14:07:28;;;;;;;;;;;23.90;41.90;;;;;;4979022;28;19917;-63
2022/07/10 14:09:54;;;;;;;;;;;23.90;42.00;;;;;;4983769;28;20616;-64
2022/07/10 14:12:19;;;;;;;;;;;23.90;42.30;;;;;;4983402;28;19952;-64
2022/07/10 14:14:45;;;;;;;;;;;23.90;42.10;;;;;;4986310;28;20498;-63
2022/07/10 14:17:10;;;;;;;;;;;23.90;42.10;;;;;;4984844;28;19913;-64
2022/07/10 14:19:36;;;;;;;;;;;23.90;42.40;;;;;;4985129;28;19917;-63
2022/07/10 14:22:01;;;;;;;;;;;24.00;42.80;;;;;;4983207;28;20554;-63
2022/07/10 14:24:27;;;;;;;;;;;23.90;42.60;;;;;;4982240;28;19921;-63